Rechercher aéroport 
image banner adimage banner adimage banner ad
image banner ad

6CL5 - Majlar

Situé à Ojai, United States

ICAO - 6CL5, IATA -

Données fournies par Airmate  

Information générale

Coordonnées: N34°24'27" W119°10'9"
Élévation : 2420 feet MSL.
Variation magnétique : 14° East
Voir autres Aéroports à California

Données opérationnelles

Special qualification required
Heure actuelle UTC:
Heure actuelle locale:
Météo à : KCMA - Camarillo ( 23 km )
METAR: KCMA 262155Z 24007KT 10SM CLR 22/16 A2995 RMK AO2 SLP149 T02220156
TAF: KCMA 261950Z 2620/2718 26008KT P6SM -RA SCT014 BKN026 FM270200 23006KT P6SM OVC100 FM270600 VRB03KT P6SM OVC007
Voir NOTAMs / SUP AIP / TFR affectant cet aéroport [VIEW]
Fréquences de communication: [VIEW]

Pistes:

Coordonnées de l'aéroport

Adresse: Ojai United States

Vue satellite de 6CL5